sensor_id;sensor_type;location;lat;lon;timestamp;P1;durP1;ratioP1;P2;durP2;ratioP2
64186;SDS011;50491;39.484;-8.540;2022-07-22T00:06:34;6.85;;;3.40;;
64186;SDS011;50491;39.484;-8.540;2022-07-22T00:08:35;7.88;;;3.67;;
64186;SDS011;50491;39.484;-8.540;2022-07-22T00:10:36;9.10;;;3.20;;
64186;SDS011;50491;39.484;-8.540;2022-07-22T00:12:55;9.80;;;4.30;;
64186;SDS011;50491;39.484;-8.540;2022-07-22T00:17:15;7.95;;;3.28;;
64186;SDS011;50491;39.484;-8.540;2022-07-22T00:19:34;5.00;;;2.95;;
64186;SDS011;50491;39.484;-8.540;2022-07-22T00:21:35;5.72;;;2.83;;
64186;SDS011;50491;39.484;-8.540;2022-07-22T00:26:14;8.10;;;3.40;;
64186;SDS011;50491;39.484;-8.540;2022-07-22T00:28:14;5.22;;;3.95;;
64186;SDS011;50491;39.484;-8.540;2022-07-22T00:30:15;6.82;;;3.67;;
64186;SDS011;50491;39.484;-8.540;2022-07-22T00:32:34;6.95;;;3.45;;
64186;SDS011;50491;39.484;-8.540;2022-07-22T00:34:53;5.25;;;3.33;;
64186;SDS011;50491;39.484;-8.540;2022-07-22T00:37:13;5.05;;;3.20;;
64186;SDS011;50491;39.484;-8.540;2022-07-22T00:39:14;11.65;;;4.40;;
64186;SDS011;50491;39.484;-8.540;2022-07-22T00:41:15;11.57;;;4.05;;
64186;SDS011;50491;39.484;-8.540;2022-07-22T00:43:16;5.75;;;3.40;;
64186;SDS011;50491;39.484;-8.540;2022-07-22T00:45:35;6.25;;;3.25;;
64186;SDS011;50491;39.484;-8.540;2022-07-22T00:47:36;4.47;;;3.15;;
64186;SDS011;50491;39.484;-8.540;2022-07-22T00:49:37;6.43;;;3.10;;
64186;SDS011;50491;39.484;-8.540;2022-07-22T00:51:38;8.27;;;4.55;;
64186;SDS011;50491;39.484;-8.540;2022-07-22T00:55:58;3.70;;;2.15;;
64186;SDS011;50491;39.484;-8.540;2022-07-22T00:57:59;6.35;;;3.05;;
64186;SDS011;50491;39.484;-8.540;2022-07-22T01:00:00;6.72;;;2.55;;
64186;SDS011;50491;39.484;-8.540;2022-07-22T01:02:19;11.82;;;3.70;;
64186;SDS011;50491;39.484;-8.540;2022-07-22T01:04:20;10.23;;;4.43;;
64186;SDS011;50491;39.484;-8.540;2022-07-22T01:06:21;4.15;;;3.47;;
64186;SDS011;50491;39.484;-8.540;2022-07-22T01:08:48;6.45;;;3.30;;
64186;SDS011;50491;39.484;-8.540;2022-07-22T01:10:49;7.00;;;3.97;;
64186;SDS011;50491;39.484;-8.540;2022-07-22T01:13:08;10.88;;;4.20;;
64186;SDS011;50491;39.484;-8.540;2022-07-22T01:15:28;7.85;;;4.22;;
64186;SDS011;50491;39.484;-8.540;2022-07-22T01:17:28;7.55;;;2.83;;
64186;SDS011;50491;39.484;-8.540;2022-07-22T01:19:49;7.50;;;3.88;;
64186;SDS011;50491;39.484;-8.540;2022-07-22T01:21:50;4.85;;;3.60;;
64186;SDS011;50491;39.484;-8.540;2022-07-22T01:24:16;11.63;;;4.30;;
64186;SDS011;50491;39.484;-8.540;2022-07-22T01:27:07;8.13;;;4.55;;
64186;SDS011;50491;39.484;-8.540;2022-07-22T01:29:08;10.02;;;3.65;;
64186;SDS011;50491;39.484;-8.540;2022-07-22T01:31:09;6.13;;;3.72;;
64186;SDS011;50491;39.484;-8.540;2022-07-22T01:33:09;14.00;;;3.80;;
64186;SDS011;50491;39.484;-8.540;2022-07-22T01:35:10;5.57;;;4.03;;
64186;SDS011;50491;39.484;-8.540;2022-07-22T01:37:11;7.07;;;3.70;;
64186;SDS011;50491;39.484;-8.540;2022-07-22T01:39:12;10.50;;;4.57;;
64186;SDS011;50491;39.484;-8.540;2022-07-22T01:41:12;11.77;;;4.40;;
64186;SDS011;50491;39.484;-8.540;2022-07-22T01:43:32;6.82;;;3.72;;
64186;SDS011;50491;39.484;-8.540;2022-07-22T01:45:33;6.65;;;4.10;;
64186;SDS011;50491;39.484;-8.540;2022-07-22T01:47:34;11.82;;;5.85;;
64186;SDS011;50491;39.484;-8.540;2022-07-22T01:49:35;10.02;;;4.32;;
64186;SDS011;50491;39.484;-8.540;2022-07-22T01:51:54;6.25;;;3.35;;
64186;SDS011;50491;39.484;-8.540;2022-07-22T01:53:55;9.98;;;3.78;;
64186;SDS011;50491;39.484;-8.540;2022-07-22T01:58:33;8.70;;;4.57;;
64186;SDS011;50491;39.484;-8.540;2022-07-22T02:00:34;4.40;;;3.03;;
64186;SDS011;50491;39.484;-8.540;2022-07-22T02:02:37;5.35;;;4.07;;
64186;SDS011;50491;39.484;-8.540;2022-07-22T02:04:56;8.05;;;3.25;;
64186;SDS011;50491;39.484;-8.540;2022-07-22T02:09:34;5.47;;;3.88;;
64186;SDS011;50491;39.484;-8.540;2022-07-22T02:11:35;8.70;;;4.20;;
64186;SDS011;50491;39.484;-8.540;2022-07-22T02:13:36;9.57;;;3.95;;
64186;SDS011;50491;39.484;-8.540;2022-07-22T02:15:37;7.65;;;4.45;;
64186;SDS011;50491;39.484;-8.540;2022-07-22T02:17:37;4.88;;;3.40;;
64186;SDS011;50491;39.484;-8.540;2022-07-22T02:20:28;10.32;;;3.72;;
64186;SDS011;50491;39.484;-8.540;2022-07-22T02:23:19;7.00;;;4.45;;
64186;SDS011;50491;39.484;-8.540;2022-07-22T02:26:11;4.72;;;3.60;;
64186;SDS011;50491;39.484;-8.540;2022-07-22T02:28:12;7.00;;;3.60;;
64186;SDS011;50491;39.484;-8.540;2022-07-22T02:30:13;6.43;;;3.35;;
64186;SDS011;50491;39.484;-8.540;2022-07-22T02:32:14;8.60;;;4.70;;
64186;SDS011;50491;39.484;-8.540;2022-07-22T02:34:14;6.35;;;4.22;;
64186;SDS011;50491;39.484;-8.540;2022-07-22T02:36:15;6.45;;;3.95;;
64186;SDS011;50491;39.484;-8.540;2022-07-22T02:38:17;7.45;;;4.53;;
64186;SDS011;50491;39.484;-8.540;2022-07-22T02:40:18;8.68;;;4.47;;
64186;SDS011;50491;39.484;-8.540;2022-07-22T02:42:19;8.43;;;3.50;;
64186;SDS011;50491;39.484;-8.540;2022-07-22T02:44:23;6.32;;;4.40;;
64186;SDS011;50491;39.484;-8.540;2022-07-22T02:46:24;8.55;;;4.57;;
64186;SDS011;50491;39.484;-8.540;2022-07-22T02:48:25;5.45;;;4.18;;
64186;SDS011;50491;39.484;-8.540;2022-07-22T02:50:26;6.10;;;4.40;;
64186;SDS011;50491;39.484;-8.540;2022-07-22T02:52:28;8.80;;;5.70;;
64186;SDS011;50491;39.484;-8.540;2022-07-22T02:54:28;12.52;;;4.07;;
64186;SDS011;50491;39.484;-8.540;2022-07-22T02:56:30;7.65;;;3.35;;
64186;SDS011;50491;39.484;-8.540;2022-07-22T02:58:31;6.63;;;4.03;;
64186;SDS011;50491;39.484;-8.540;2022-07-22T03:00:50;10.15;;;4.80;;
64186;SDS011;50491;39.484;-8.540;2022-07-22T03:03:16;6.55;;;3.80;;
64186;SDS011;50491;39.484;-8.540;2022-07-22T03:05:17;7.15;;;4.63;;
64186;SDS011;50491;39.484;-8.540;2022-07-22T03:07:24;5.55;;;3.85;;
64186;SDS011;50491;39.484;-8.540;2022-07-22T03:09:25;9.52;;;4.80;;
64186;SDS011;50491;39.484;-8.540;2022-07-22T03:11:26;9.77;;;4.68;;
64186;SDS011;50491;39.484;-8.540;2022-07-22T03:13:26;5.05;;;3.35;;
64186;SDS011;50491;39.484;-8.540;2022-07-22T03:15:27;12.35;;;6.07;;
64186;SDS011;50491;39.484;-8.540;2022-07-22T03:17:28;6.72;;;3.70;;
64186;SDS011;50491;39.484;-8.540;2022-07-22T03:19:47;8.73;;;3.88;;
64186;SDS011;50491;39.484;-8.540;2022-07-22T03:22:06;10.00;;;4.40;;
64186;SDS011;50491;39.484;-8.540;2022-07-22T03:24:08;8.00;;;5.97;;
64186;SDS011;50491;39.484;-8.540;2022-07-22T03:26:09;10.65;;;4.97;;
64186;SDS011;50491;39.484;-8.540;2022-07-22T03:28:09;5.75;;;4.15;;
64186;SDS011;50491;39.484;-8.540;2022-07-22T03:30:10;8.32;;;4.00;;
64186;SDS011;50491;39.484;-8.540;2022-07-22T03:33:02;7.07;;;4.05;;
64186;SDS011;50491;39.484;-8.540;2022-07-22T03:35:28;4.45;;;3.38;;
64186;SDS011;50491;39.484;-8.540;2022-07-22T03:37:48;6.43;;;4.57;;
64186;SDS011;50491;39.484;-8.540;2022-07-22T03:39:50;8.68;;;4.53;;
64186;SDS011;50491;39.484;-8.540;2022-07-22T03:41:51;9.40;;;4.97;;
64186;SDS011;50491;39.484;-8.540;2022-07-22T03:43:51;8.80;;;5.30;;
64186;SDS011;50491;39.484;-8.540;2022-07-22T03:46:11;7.15;;;3.88;;
64186;SDS011;50491;39.484;-8.540;2022-07-22T03:48:13;5.18;;;4.10;;
64186;SDS011;50491;39.484;-8.540;2022-07-22T03:50:32;6.10;;;4.32;;
64186;SDS011;50491;39.484;-8.540;2022-07-22T03:52:57;7.70;;;3.55;;
64186;SDS011;50491;39.484;-8.540;2022-07-22T03:54:58;5.72;;;4.45;;
64186;SDS011;50491;39.484;-8.540;2022-07-22T03:56:59;13.50;;;5.70;;
64186;SDS011;50491;39.484;-8.540;2022-07-22T03:59:01;13.73;;;4.38;;
64186;SDS011;50491;39.484;-8.540;2022-07-22T04:01:03;7.25;;;4.35;;
64186;SDS011;50491;39.484;-8.540;2022-07-22T04:03:22;7.57;;;3.47;;
64186;SDS011;50491;39.484;-8.540;2022-07-22T04:06:12;5.60;;;3.85;;
64186;SDS011;50491;39.484;-8.540;2022-07-22T04:08:21;7.72;;;4.28;;
64186;SDS011;50491;39.484;-8.540;2022-07-22T04:10:22;6.75;;;4.57;;
64186;SDS011;50491;39.484;-8.540;2022-07-22T04:12:23;6.78;;;3.40;;
64186;SDS011;50491;39.484;-8.540;2022-07-22T04:14:42;7.57;;;4.70;;
64186;SDS011;50491;39.484;-8.540;2022-07-22T04:16:42;13.95;;;4.70;;
64186;SDS011;50491;39.484;-8.540;2022-07-22T04:18:46;9.27;;;4.10;;
64186;SDS011;50491;39.484;-8.540;2022-07-22T04:25:46;8.23;;;3.90;;
64186;SDS011;50491;39.484;-8.540;2022-07-22T04:30:06;6.45;;;3.80;;
64186;SDS011;50491;39.484;-8.540;2022-07-22T04:32:07;7.68;;;4.60;;
64186;SDS011;50491;39.484;-8.540;2022-07-22T04:34:26;9.77;;;5.68;;
64186;SDS011;50491;39.484;-8.540;2022-07-22T04:36:46;12.30;;;4.70;;
64186;SDS011;50491;39.484;-8.540;2022-07-22T04:38:46;8.82;;;4.95;;
64186;SDS011;50491;39.484;-8.540;2022-07-22T04:40:47;8.90;;;4.60;;
64186;SDS011;50491;39.484;-8.540;2022-07-22T04:42:48;7.43;;;4.72;;
64186;SDS011;50491;39.484;-8.540;2022-07-22T04:45:07;10.00;;;4.10;;
64186;SDS011;50491;39.484;-8.540;2022-07-22T04:47:08;6.28;;;4.28;;
64186;SDS011;50491;39.484;-8.540;2022-07-22T04:49:27;7.88;;;4.05;;
64186;SDS011;50491;39.484;-8.540;2022-07-22T04:51:46;9.48;;;4.35;;
64186;SDS011;50491;39.484;-8.540;2022-07-22T04:53:57;7.28;;;3.72;;
64186;SDS011;50491;39.484;-8.540;2022-07-22T05:03:41;12.95;;;5.03;;
64186;SDS011;50491;39.484;-8.540;2022-07-22T05:05:42;8.35;;;4.57;;
64186;SDS011;50491;39.484;-8.540;2022-07-22T05:07:43;13.45;;;4.97;;
64186;SDS011;50491;39.484;-8.540;2022-07-22T05:09:44;7.40;;;4.57;;
64186;SDS011;50491;39.484;-8.540;2022-07-22T05:11:46;11.30;;;4.45;;
64186;SDS011;50491;39.484;-8.540;2022-07-22T05:14:05;8.88;;;4.95;;
64186;SDS011;50491;39.484;-8.540;2022-07-22T05:16:06;6.80;;;5.03;;
64186;SDS011;50491;39.484;-8.540;2022-07-22T05:18:09;8.90;;;4.95;;
64186;SDS011;50491;39.484;-8.540;2022-07-22T05:20:10;9.43;;;5.30;;
64186;SDS011;50491;39.484;-8.540;2022-07-22T05:22:11;9.77;;;4.57;;
64186;SDS011;50491;39.484;-8.540;2022-07-22T05:24:12;10.70;;;3.92;;
64186;SDS011;50491;39.484;-8.540;2022-07-22T05:29:56;12.00;;;4.88;;
64186;SDS011;50491;39.484;-8.540;2022-07-22T05:31:57;7.97;;;4.38;;
64186;SDS011;50491;39.484;-8.540;2022-07-22T05:33:58;15.35;;;6.07;;
64186;SDS011;50491;39.484;-8.540;2022-07-22T05:36:17;8.50;;;5.03;;
64186;SDS011;50491;39.484;-8.540;2022-07-22T05:38:21;8.77;;;5.85;;
64186;SDS011;50491;39.484;-8.540;2022-07-22T05:40:48;5.93;;;4.10;;
64186;SDS011;50491;39.484;-8.540;2022-07-22T05:43:07;5.70;;;4.55;;
64186;SDS011;50491;39.484;-8.540;2022-07-22T05:45:08;10.95;;;5.25;;
64186;SDS011;50491;39.484;-8.540;2022-07-22T05:47:09;7.88;;;4.00;;
64186;SDS011;50491;39.484;-8.540;2022-07-22T05:49:10;10.98;;;4.70;;
64186;SDS011;50491;39.484;-8.540;2022-07-22T05:51:23;5.15;;;4.00;;
64186;SDS011;50491;39.484;-8.540;2022-07-22T05:53:24;5.32;;;3.85;;
64186;SDS011;50491;39.484;-8.540;2022-07-22T05:55:40;5.82;;;3.97;;
64186;SDS011;50491;39.484;-8.540;2022-07-22T05:57:41;5.28;;;3.88;;
64186;SDS011;50491;39.484;-8.540;2022-07-22T05:59:42;8.02;;;4.13;;
64186;SDS011;50491;39.484;-8.540;2022-07-22T06:01:43;10.95;;;4.72;;
64186;SDS011;50491;39.484;-8.540;2022-07-22T06:04:03;7.10;;;4.93;;
64186;SDS011;50491;39.484;-8.540;2022-07-22T06:06:04;16.02;;;6.65;;
64186;SDS011;50491;39.484;-8.540;2022-07-22T06:11:00;11.52;;;4.20;;
64186;SDS011;50491;39.484;-8.540;2022-07-22T06:13:25;9.43;;;5.03;;
64186;SDS011;50491;39.484;-8.540;2022-07-22T06:20:05;14.40;;;5.18;;
64186;SDS011;50491;39.484;-8.540;2022-07-22T06:22:07;11.60;;;6.20;;
64186;SDS011;50491;39.484;-8.540;2022-07-22T06:24:07;7.20;;;4.80;;
64186;SDS011;50491;39.484;-8.540;2022-07-22T06:26:26;10.48;;;5.63;;
64186;SDS011;50491;39.484;-8.540;2022-07-22T06:28:27;8.77;;;4.60;;
64186;SDS011;50491;39.484;-8.540;2022-07-22T06:30:46;7.13;;;3.88;;
64186;SDS011;50491;39.484;-8.540;2022-07-22T06:33:05;7.75;;;3.45;;
64186;SDS011;50491;39.484;-8.540;2022-07-22T06:35:25;15.10;;;5.78;;
64186;SDS011;50491;39.484;-8.540;2022-07-22T06:37:26;8.25;;;4.97;;
64186;SDS011;50491;39.484;-8.540;2022-07-22T06:39:26;6.00;;;4.15;;
64186;SDS011;50491;39.484;-8.540;2022-07-22T06:41:45;6.50;;;4.68;;
64186;SDS011;50491;39.484;-8.540;2022-07-22T06:44:01;7.25;;;4.93;;
64186;SDS011;50491;39.484;-8.540;2022-07-22T06:46:21;8.85;;;4.53;;
64186;SDS011;50491;39.484;-8.540;2022-07-22T06:48:25;9.13;;;5.20;;
64186;SDS011;50491;39.484;-8.540;2022-07-22T06:50:26;11.25;;;5.18;;
64186;SDS011;50491;39.484;-8.540;2022-07-22T06:54:46;8.13;;;5.20;;
64186;SDS011;50491;39.484;-8.540;2022-07-22T06:56:52;9.48;;;4.45;;
64186;SDS011;50491;39.484;-8.540;2022-07-22T06:58:58;8.63;;;4.95;;
64186;SDS011;50491;39.484;-8.540;2022-07-22T07:00:59;5.15;;;3.90;;
64186;SDS011;50491;39.484;-8.540;2022-07-22T07:03:18;7.45;;;4.63;;
64186;SDS011;50491;39.484;-8.540;2022-07-22T07:05:19;9.00;;;5.78;;
64186;SDS011;50491;39.484;-8.540;2022-07-22T07:10:08;5.80;;;4.00;;
64186;SDS011;50491;39.484;-8.540;2022-07-22T07:12:23;9.27;;;4.82;;
64186;SDS011;50491;39.484;-8.540;2022-07-22T07:14:43;5.63;;;4.07;;
64186;SDS011;50491;39.484;-8.540;2022-07-22T07:16:46;13.15;;;5.88;;
64186;SDS011;50491;39.484;-8.540;2022-07-22T07:18:46;16.98;;;6.05;;
64186;SDS011;50491;39.484;-8.540;2022-07-22T07:23:26;5.57;;;4.07;;
64186;SDS011;50491;39.484;-8.540;2022-07-22T07:25:45;16.88;;;3.80;;
64186;SDS011;50491;39.484;-8.540;2022-07-22T07:27:46;12.73;;;4.57;;
64186;SDS011;50491;39.484;-8.540;2022-07-22T07:29:49;10.73;;;3.92;;
64186;SDS011;50491;39.484;-8.540;2022-07-22T07:44:01;10.63;;;4.55;;
64186;SDS011;50491;39.484;-8.540;2022-07-22T07:46:02;16.27;;;4.20;;
64186;SDS011;50491;39.484;-8.540;2022-07-22T07:48:03;6.60;;;3.10;;
64186;SDS011;50491;39.484;-8.540;2022-07-22T07:50:05;7.50;;;3.53;;
64186;SDS011;50491;39.484;-8.540;2022-07-22T07:52:08;7.55;;;4.15;;
64186;SDS011;50491;39.484;-8.540;2022-07-22T07:54:27;4.82;;;3.70;;
64186;SDS011;50491;39.484;-8.540;2022-07-22T07:56:29;11.23;;;4.10;;
64186;SDS011;50491;39.484;-8.540;2022-07-22T07:58:48;17.73;;;4.70;;
64186;SDS011;50491;39.484;-8.540;2022-07-22T08:01:07;13.05;;;4.10;;
64186;SDS011;50491;39.484;-8.540;2022-07-22T08:03:27;8.60;;;3.67;;
64186;SDS011;50491;39.484;-8.540;2022-07-22T08:08:06;5.30;;;3.92;;
64186;SDS011;50491;39.484;-8.540;2022-07-22T08:10:08;7.55;;;3.90;;
64186;SDS011;50491;39.484;-8.540;2022-07-22T08:12:32;12.10;;;4.57;;
64186;SDS011;50491;39.484;-8.540;2022-07-22T08:14:59;9.65;;;4.40;;
64186;SDS011;50491;39.484;-8.540;2022-07-22T08:17:49;7.93;;;3.33;;
64186;SDS011;50491;39.484;-8.540;2022-07-22T08:20:15;8.00;;;3.88;;
64186;SDS011;50491;39.484;-8.540;2022-07-22T08:22:16;6.95;;;3.42;;
64186;SDS011;50491;39.484;-8.540;2022-07-22T08:24:35;6.63;;;3.40;;
64186;SDS011;50491;39.484;-8.540;2022-07-22T08:26:43;9.30;;;4.25;;
64186;SDS011;50491;39.484;-8.540;2022-07-22T08:28:44;6.20;;;3.97;;
64186;SDS011;50491;39.484;-8.540;2022-07-22T08:30:45;8.63;;;4.07;;
64186;SDS011;50491;39.484;-8.540;2022-07-22T08:32:46;3.40;;;2.80;;
64186;SDS011;50491;39.484;-8.540;2022-07-22T08:34:47;12.13;;;4.25;;
64186;SDS011;50491;39.484;-8.540;2022-07-22T08:36:47;7.97;;;2.95;;
64186;SDS011;50491;39.484;-8.540;2022-07-22T08:38:48;5.10;;;3.17;;
64186;SDS011;50491;39.484;-8.540;2022-07-22T08:40:49;11.60;;;3.42;;
64186;SDS011;50491;39.484;-8.540;2022-07-22T08:42:50;6.95;;;3.63;;
64186;SDS011;50491;39.484;-8.540;2022-07-22T08:44:52;10.10;;;3.55;;
64186;SDS011;50491;39.484;-8.540;2022-07-22T08:46:53;9.95;;;3.42;;
64186;SDS011;50491;39.484;-8.540;2022-07-22T08:48:53;2.70;;;2.33;;
64186;SDS011;50491;39.484;-8.540;2022-07-22T08:51:15;4.50;;;3.17;;
64186;SDS011;50491;39.484;-8.540;2022-07-22T08:53:29;13.70;;;3.25;;
64186;SDS011;50491;39.484;-8.540;2022-07-22T08:55:40;9.45;;;3.08;;
64186;SDS011;50491;39.484;-8.540;2022-07-22T08:58:00;10.97;;;4.00;;
64186;SDS011;50491;39.484;-8.540;2022-07-22T09:00:03;13.27;;;3.55;;
64186;SDS011;50491;39.484;-8.540;2022-07-22T09:02:09;8.85;;;2.92;;
64186;SDS011;50491;39.484;-8.540;2022-07-22T09:04:17;8.18;;;3.55;;
64186;SDS011;50491;39.484;-8.540;2022-07-22T09:06:19;10.35;;;4.18;;
64186;SDS011;50491;39.484;-8.540;2022-07-22T09:08:21;4.38;;;2.60;;
64186;SDS011;50491;39.484;-8.540;2022-07-22T09:11:16;9.57;;;3.38;;
64186;SDS011;50491;39.484;-8.540;2022-07-22T09:13:29;7.53;;;4.10;;
64186;SDS011;50491;39.484;-8.540;2022-07-22T09:16:02;6.28;;;3.17;;
64186;SDS011;50491;39.484;-8.540;2022-07-22T09:18:19;10.20;;;4.32;;
64186;SDS011;50491;39.484;-8.540;2022-07-22T09:20:51;11.88;;;3.88;;
64186;SDS011;50491;39.484;-8.540;2022-07-22T09:23:17;6.97;;;3.10;;
64186;SDS011;50491;39.484;-8.540;2022-07-22T09:27:49;8.20;;;3.53;;
64186;SDS011;50491;39.484;-8.540;2022-07-22T09:30:05;3.88;;;3.15;;
64186;SDS011;50491;39.484;-8.540;2022-07-22T09:32:14;9.60;;;3.97;;
64186;SDS011;50491;39.484;-8.540;2022-07-22T09:34:33;5.55;;;2.67;;
64186;SDS011;50491;39.484;-8.540;2022-07-22T09:36:53;8.30;;;3.92;;
64186;SDS011;50491;39.484;-8.540;2022-07-22T09:38:55;6.53;;;3.67;;
64186;SDS011;50491;39.484;-8.540;2022-07-22T09:40:56;8.35;;;3.40;;
64186;SDS011;50491;39.484;-8.540;2022-07-22T09:42:58;8.27;;;3.97;;
64186;SDS011;50491;39.484;-8.540;2022-07-22T09:45:02;15.10;;;4.18;;
64186;SDS011;50491;39.484;-8.540;2022-07-22T09:55:16;6.57;;;3.20;;
64186;SDS011;50491;39.484;-8.540;2022-07-22T09:57:36;3.08;;;2.60;;
64186;SDS011;50491;39.484;-8.540;2022-07-22T09:59:56;15.38;;;3.03;;
64186;SDS011;50491;39.484;-8.540;2022-07-22T10:02:14;5.45;;;3.15;;
64186;SDS011;50491;39.484;-8.540;2022-07-22T10:04:16;7.38;;;2.90;;
64186;SDS011;50491;39.484;-8.540;2022-07-22T10:06:20;6.10;;;3.42;;
64186;SDS011;50491;39.484;-8.540;2022-07-22T10:08:46;4.70;;;3.22;;
64186;SDS011;50491;39.484;-8.540;2022-07-22T10:11:12;6.22;;;3.30;;
64186;SDS011;50491;39.484;-8.540;2022-07-22T10:13:15;3.55;;;2.50;;
64186;SDS011;50491;39.484;-8.540;2022-07-22T10:15:18;8.60;;;3.80;;
64186;SDS011;50491;39.484;-8.540;2022-07-22T10:17:19;10.02;;;3.38;;
64186;SDS011;50491;39.484;-8.540;2022-07-22T10:19:21;9.05;;;3.47;;
64186;SDS011;50491;39.484;-8.540;2022-07-22T10:21:30;9.63;;;3.65;;
64186;SDS011;50491;39.484;-8.540;2022-07-22T10:26:47;17.33;;;4.35;;
64186;SDS011;50491;39.484;-8.540;2022-07-22T10:28:48;12.95;;;4.05;;
64186;SDS011;50491;39.484;-8.540;2022-07-22T10:30:49;6.32;;;3.15;;
64186;SDS011;50491;39.484;-8.540;2022-07-22T10:38:01;6.60;;;3.33;;
64186;SDS011;50491;39.484;-8.540;2022-07-22T10:40:10;6.50;;;3.35;;
64186;SDS011;50491;39.484;-8.540;2022-07-22T10:42:13;3.92;;;3.22;;
64186;SDS011;50491;39.484;-8.540;2022-07-22T10:44:13;6.10;;;3.30;;
64186;SDS011;50491;39.484;-8.540;2022-07-22T10:49:06;8.30;;;4.05;;
64186;SDS011;50491;39.484;-8.540;2022-07-22T10:56:43;4.60;;;2.50;;
64186;SDS011;50491;39.484;-8.540;2022-07-22T10:59:09;8.02;;;3.20;;
64186;SDS011;50491;39.484;-8.540;2022-07-22T11:01:29;8.57;;;2.92;;
64186;SDS011;50491;39.484;-8.540;2022-07-22T11:03:32;7.00;;;3.30;;
64186;SDS011;50491;39.484;-8.540;2022-07-22T11:05:33;5.68;;;3.20;;
64186;SDS011;50491;39.484;-8.540;2022-07-22T11:07:40;6.45;;;2.92;;
64186;SDS011;50491;39.484;-8.540;2022-07-22T11:09:44;4.40;;;2.85;;
64186;SDS011;50491;39.484;-8.540;2022-07-22T11:14:28;6.75;;;3.03;;
64186;SDS011;50491;39.484;-8.540;2022-07-22T11:16:51;9.57;;;3.58;;
64186;SDS011;50491;39.484;-8.540;2022-07-22T11:18:56;7.13;;;2.58;;
64186;SDS011;50491;39.484;-8.540;2022-07-22T11:20:59;5.32;;;2.80;;
64186;SDS011;50491;39.484;-8.540;2022-07-22T11:22:59;6.82;;;3.38;;
64186;SDS011;50491;39.484;-8.540;2022-07-22T11:25:01;7.43;;;3.65;;
64186;SDS011;50491;39.484;-8.540;2022-07-22T11:27:13;10.50;;;2.88;;
64186;SDS011;50491;39.484;-8.540;2022-07-22T11:31:25;4.40;;;2.65;;
64186;SDS011;50491;39.484;-8.540;2022-07-22T11:38:47;6.93;;;3.30;;
64186;SDS011;50491;39.484;-8.540;2022-07-22T11:41:07;5.50;;;2.88;;
64186;SDS011;50491;39.484;-8.540;2022-07-22T11:43:32;5.32;;;2.42;;
64186;SDS011;50491;39.484;-8.540;2022-07-22T11:50:37;5.03;;;2.30;;
64186;SDS011;50491;39.484;-8.540;2022-07-22T11:52:38;9.57;;;3.00;;
64186;SDS011;50491;39.484;-8.540;2022-07-22T11:54:39;5.30;;;2.85;;
64186;SDS011;50491;39.484;-8.540;2022-07-22T11:56:41;5.47;;;2.90;;
64186;SDS011;50491;39.484;-8.540;2022-07-22T11:58:45;4.93;;;2.58;;
64186;SDS011;50491;39.484;-8.540;2022-07-22T12:00:47;4.90;;;2.58;;
64186;SDS011;50491;39.484;-8.540;2022-07-22T12:02:49;2.80;;;2.47;;
64186;SDS011;50491;39.484;-8.540;2022-07-22T12:04:49;4.53;;;2.25;;
64186;SDS011;50491;39.484;-8.540;2022-07-22T12:07:12;3.55;;;2.15;;
64186;SDS011;50491;39.484;-8.540;2022-07-22T12:09:16;3.58;;;2.00;;
64186;SDS011;50491;39.484;-8.540;2022-07-22T12:11:17;3.35;;;2.15;;
64186;SDS011;50491;39.484;-8.540;2022-07-22T12:13:19;2.85;;;1.88;;
64186;SDS011;50491;39.484;-8.540;2022-07-22T12:15:20;3.03;;;1.65;;
64186;SDS011;50491;39.484;-8.540;2022-07-22T12:17:45;4.20;;;1.90;;
64186;SDS011;50491;39.484;-8.540;2022-07-22T12:20:11;2.05;;;1.77;;
64186;SDS011;50491;39.484;-8.540;2022-07-22T12:28:00;3.33;;;1.50;;
64186;SDS011;50491;39.484;-8.540;2022-07-22T12:30:26;2.97;;;1.63;;
64186;SDS011;50491;39.484;-8.540;2022-07-22T12:32:46;3.30;;;1.70;;
64186;SDS011;50491;39.484;-8.540;2022-07-22T12:35:06;4.00;;;1.83;;
64186;SDS011;50491;39.484;-8.540;2022-07-22T12:39:26;4.78;;;1.85;;
64186;SDS011;50491;39.484;-8.540;2022-07-22T12:41:27;5.05;;;2.22;;
64186;SDS011;50491;39.484;-8.540;2022-07-22T12:43:30;2.97;;;2.15;;
64186;SDS011;50491;39.484;-8.540;2022-07-22T12:45:49;2.45;;;1.92;;
64186;SDS011;50491;39.484;-8.540;2022-07-22T12:47:51;6.18;;;1.95;;
64186;SDS011;50491;39.484;-8.540;2022-07-22T12:49:57;3.42;;;2.28;;
64186;SDS011;50491;39.484;-8.540;2022-07-22T12:52:17;2.92;;;1.90;;
64186;SDS011;50491;39.484;-8.540;2022-07-22T12:54:36;2.80;;;1.90;;
64186;SDS011;50491;39.484;-8.540;2022-07-22T12:56:38;3.40;;;2.20;;
64186;SDS011;50491;39.484;-8.540;2022-07-22T13:00:59;3.58;;;1.98;;
64186;SDS011;50491;39.484;-8.540;2022-07-22T13:07:41;2.80;;;1.90;;
64186;SDS011;50491;39.484;-8.540;2022-07-22T13:10:01;3.95;;;1.90;;
64186;SDS011;50491;39.484;-8.540;2022-07-22T13:12:02;3.35;;;2.17;;
64186;SDS011;50491;39.484;-8.540;2022-07-22T13:14:03;3.92;;;2.03;;
64186;SDS011;50491;39.484;-8.540;2022-07-22T13:16:04;2.38;;;1.70;;
64186;SDS011;50491;39.484;-8.540;2022-07-22T13:18:05;4.22;;;2.00;;
64186;SDS011;50491;39.484;-8.540;2022-07-22T13:20:24;3.47;;;1.85;;
64186;SDS011;50491;39.484;-8.540;2022-07-22T13:22:44;3.53;;;2.28;;
64186;SDS011;50491;39.484;-8.540;2022-07-22T13:24:45;2.53;;;1.80;;
64186;SDS011;50491;39.484;-8.540;2022-07-22T13:26:46;3.40;;;1.67;;
64186;SDS011;50491;39.484;-8.540;2022-07-22T13:28:47;3.63;;;1.88;;
64186;SDS011;50491;39.484;-8.540;2022-07-22T13:30:48;3.83;;;1.98;;
64186;SDS011;50491;39.484;-8.540;2022-07-22T13:32:48;4.38;;;1.60;;
64186;SDS011;50491;39.484;-8.540;2022-07-22T13:35:07;4.03;;;1.83;;
64186;SDS011;50491;39.484;-8.540;2022-07-22T13:37:09;2.65;;;1.83;;
64186;SDS011;50491;39.484;-8.540;2022-07-22T13:39:10;3.95;;;2.25;;
64186;SDS011;50491;39.484;-8.540;2022-07-22T13:41:10;3.25;;;2.33;;
64186;SDS011;50491;39.484;-8.540;2022-07-22T13:43:17;2.30;;;1.55;;
64186;SDS011;50491;39.484;-8.540;2022-07-22T13:45:18;4.00;;;2.25;;
64186;SDS011;50491;39.484;-8.540;2022-07-22T13:47:20;3.75;;;2.22;;
64186;SDS011;50491;39.484;-8.540;2022-07-22T13:49:21;1.98;;;1.50;;
64186;SDS011;50491;39.484;-8.540;2022-07-22T13:51:22;2.67;;;1.90;;
64186;SDS011;50491;39.484;-8.540;2022-07-22T13:53:23;5.28;;;1.90;;
64186;SDS011;50491;39.484;-8.540;2022-07-22T13:58:39;4.35;;;2.30;;
64186;SDS011;50491;39.484;-8.540;2022-07-22T14:00:40;2.58;;;2.08;;
64186;SDS011;50491;39.484;-8.540;2022-07-22T14:02:45;3.50;;;2.28;;
64186;SDS011;50491;39.484;-8.540;2022-07-22T14:04:46;8.50;;;2.58;;
64186;SDS011;50491;39.484;-8.540;2022-07-22T14:06:46;2.78;;;1.80;;
64186;SDS011;50491;39.484;-8.540;2022-07-22T14:09:12;3.00;;;1.98;;
64186;SDS011;50491;39.484;-8.540;2022-07-22T14:11:14;6.60;;;2.10;;
64186;SDS011;50491;39.484;-8.540;2022-07-22T14:13:15;3.75;;;2.00;;
64186;SDS011;50491;39.484;-8.540;2022-07-22T14:15:16;5.20;;;2.35;;
64186;SDS011;50491;39.484;-8.540;2022-07-22T14:17:17;5.80;;;2.67;;
64186;SDS011;50491;39.484;-8.540;2022-07-22T14:19:18;8.48;;;2.63;;
64186;SDS011;50491;39.484;-8.540;2022-07-22T14:21:19;4.80;;;2.00;;
64186;SDS011;50491;39.484;-8.540;2022-07-22T14:23:19;5.25;;;2.30;;
64186;SDS011;50491;39.484;-8.540;2022-07-22T14:25:42;6.43;;;2.85;;
64186;SDS011;50491;39.484;-8.540;2022-07-22T14:28:01;3.38;;;2.47;;
64186;SDS011;50491;39.484;-8.540;2022-07-22T14:30:02;3.72;;;2.60;;
64186;SDS011;50491;39.484;-8.540;2022-07-22T14:32:04;4.05;;;2.33;;
64186;SDS011;50491;39.484;-8.540;2022-07-22T14:34:23;6.47;;;3.17;;
64186;SDS011;50491;39.484;-8.540;2022-07-22T14:36:48;3.80;;;2.70;;
64186;SDS011;50491;39.484;-8.540;2022-07-22T14:38:49;8.05;;;2.55;;
64186;SDS011;50491;39.484;-8.540;2022-07-22T14:40:50;6.75;;;2.50;;
64186;SDS011;50491;39.484;-8.540;2022-07-22T14:42:51;6.13;;;2.63;;
64186;SDS011;50491;39.484;-8.540;2022-07-22T14:44:51;5.90;;;2.63;;
64186;SDS011;50491;39.484;-8.540;2022-07-22T14:46:52;4.07;;;2.60;;